createdAt,value
2023-02-19T00:00:13.978Z,0.40
2023-02-19T00:02:42.833Z,0.40
2023-02-19T00:05:10.655Z,0.53
2023-02-19T00:07:46.244Z,0.40
2023-02-19T00:10:13.946Z,0.40
2023-02-19T00:12:41.643Z,0.30
2023-02-19T00:15:13.503Z,0.53
2023-02-19T00:17:41.258Z,0.30
2023-02-19T00:20:09.828Z,0.57
2023-02-19T00:22:39.572Z,0.50
2023-02-19T00:25:09.102Z,0.50
2023-02-19T00:27:36.806Z,0.52
2023-02-19T00:30:09.139Z,0.50
2023-02-19T00:32:36.915Z,0.40
2023-02-19T00:35:04.780Z,0.40
2023-02-19T00:37:36.652Z,0.40
2023-02-19T00:40:04.370Z,0.40
2023-02-19T00:42:33.434Z,0.30
2023-02-19T00:45:05.279Z,0.30
2023-02-19T00:47:32.975Z,0.20
2023-02-19T00:50:00.692Z,0.30
2023-02-19T00:52:32.555Z,0.30
2023-02-19T00:55:00.257Z,0.33
2023-02-19T00:57:27.939Z,0.20
2023-02-19T01:00:01.159Z,0.20
2023-02-19T01:02:28.911Z,0.30
2023-02-19T01:04:56.602Z,0.50
2023-02-19T01:07:28.521Z,0.40
2023-02-19T01:10:00.980Z,0.40
2023-02-19T01:12:28.815Z,0.40
2023-02-19T01:14:59.815Z,0.20
2023-02-19T01:17:33.964Z,0.33
2023-02-19T01:20:01.785Z,0.30
2023-02-19T01:22:29.483Z,0.40
2023-02-19T01:24:59.356Z,0.33
2023-02-19T01:27:29.004Z,0.40
2023-02-19T01:29:58.067Z,0.65
2023-02-19T01:32:28.142Z,0.20
2023-02-19T01:34:57.675Z,0.40
2023-02-19T01:37:25.410Z,0.50
2023-02-19T01:39:55.437Z,0.20
2023-02-19T01:42:25.118Z,0.20
2023-02-19T01:45:26.378Z,0.38
2023-02-19T01:47:59.816Z,0.40
2023-02-19T01:50:33.812Z,0.40
2023-02-19T01:53:07.344Z,0.50
2023-02-19T01:55:37.840Z,0.20
2023-02-19T02:00:37.166Z,0.30
2023-02-19T02:03:07.221Z,0.23
2023-02-19T02:05:48.342Z,0.32
2023-02-19T02:08:37.196Z,0.30
2023-02-19T02:11:07.042Z,0.30
2023-02-19T02:13:40.022Z,0.30
2023-02-19T02:16:23.701Z,0.40
2023-02-19T02:19:02.922Z,0.30
2023-02-19T02:21:54.246Z,0.40
2023-02-19T02:24:45.973Z,0.30
2023-02-19T02:27:28.761Z,0.40
2023-02-19T02:30:25.376Z,0.10
2023-02-19T02:33:02.152Z,0.20
2023-02-19T02:35:33.943Z,0.30
2023-02-19T02:38:07.821Z,0.30
2023-02-19T02:40:41.852Z,0.50
2023-02-19T02:43:09.725Z,0.43
2023-02-19T02:45:41.822Z,0.30
2023-02-19T02:48:26.243Z,0.33
2023-02-19T02:51:00.710Z,0.30
2023-02-19T02:53:53.451Z,0.33
2023-02-19T02:56:25.580Z,0.30
2023-02-19T02:58:54.529Z,0.40
2023-02-19T03:01:53.245Z,0.30
2023-02-19T03:04:36.722Z,0.40
2023-02-19T03:07:10.272Z,0.40
2023-02-19T03:09:45.402Z,0.40
2023-02-19T03:12:36.697Z,0.20
2023-02-19T03:15:30.410Z,0.30
2023-02-19T03:18:22.249Z,0.63
2023-02-19T03:20:56.074Z,0.40
2023-02-19T03:23:45.132Z,0.40
2023-02-19T03:26:15.736Z,0.40
2023-02-19T03:29:05.719Z,0.50
2023-02-19T03:31:36.805Z,0.22
2023-02-19T03:34:14.384Z,0.30
2023-02-19T03:36:48.717Z,0.43
2023-02-19T03:39:23.512Z,0.40
2023-02-19T03:42:01.881Z,0.20
2023-02-19T03:44:42.675Z,0.23
2023-02-19T03:47:19.329Z,0.60
2023-02-19T03:49:55.866Z,0.40
2023-02-19T03:52:33.139Z,0.40
2023-02-19T03:55:11.994Z,0.20
2023-02-19T03:57:50.636Z,0.40
2023-02-19T04:00:24.188Z,0.20
2023-02-19T04:02:59.102Z,0.30
2023-02-19T04:05:33.150Z,0.30
2023-02-19T04:08:08.902Z,0.23
2023-02-19T04:10:40.827Z,0.40
2023-02-19T04:13:16.696Z,0.30
2023-02-19T04:15:50.308Z,0.40
2023-02-19T04:18:24.536Z,0.50
2023-02-19T04:20:58.057Z,0.50
2023-02-19T04:23:31.100Z,0.53
2023-02-19T04:26:02.817Z,0.30
2023-02-19T04:28:30.562Z,0.30
2023-02-19T04:31:00.300Z,0.30
2023-02-19T04:33:30.308Z,0.30
2023-02-19T04:35:59.383Z,0.30
2023-02-19T04:38:29.478Z,0.20
2023-02-19T04:40:59.417Z,0.30
2023-02-19T04:43:27.086Z,0.47
2023-02-19T04:46:03.003Z,0.30
2023-02-19T04:48:33.091Z,0.30
2023-02-19T04:51:08.263Z,0.20
2023-02-19T04:53:36.629Z,0.40
2023-02-19T04:56:12.759Z,0.30
2023-02-19T04:58:41.762Z,0.50
2023-02-19T05:01:13.099Z,0.30
2023-02-19T05:03:43.304Z,0.30
2023-02-19T05:06:14.924Z,0.30
2023-02-19T05:08:42.986Z,0.47
2023-02-19T05:11:14.663Z,0.20
2023-02-19T05:13:44.615Z,0.30
2023-02-19T05:16:17.188Z,0.40
2023-02-19T05:18:46.515Z,0.30
2023-02-19T05:21:21.672Z,0.20
2023-02-19T05:23:49.453Z,0.33
2023-02-19T05:26:24.456Z,0.30
2023-02-19T05:28:54.277Z,0.20
2023-02-19T05:31:24.712Z,0.40
2023-02-19T05:36:24.773Z,0.40
2023-02-19T05:38:57.147Z,0.30
2023-02-19T05:41:28.269Z,0.40
2023-02-19T05:43:58.932Z,0.40
2023-02-19T05:46:30.614Z,0.57
2023-02-19T05:49:01.284Z,0.50
2023-02-19T05:51:31.171Z,0.30
2023-02-19T05:53:58.998Z,0.30
2023-02-19T05:56:37.851Z,0.30
2023-02-19T05:59:08.064Z,0.40
2023-02-19T06:01:38.385Z,0.55
2023-02-19T06:06:35.614Z,0.33
2023-02-19T06:09:05.768Z,0.40
2023-02-19T06:11:35.715Z,0.40
2023-02-19T06:14:03.547Z,0.30
2023-02-19T06:16:34.432Z,0.40
2023-02-19T06:19:05.681Z,0.20
2023-02-19T06:21:37.352Z,0.30
2023-02-19T06:24:11.411Z,0.27
2023-02-19T06:26:41.416Z,0.37
2023-02-19T06:29:09.150Z,0.47
2023-02-19T06:31:37.040Z,0.30
2023-02-19T06:34:07.316Z,0.20
2023-02-19T06:36:36.399Z,0.30
2023-02-19T06:39:07.799Z,0.40
2023-02-19T06:41:37.659Z,0.20
2023-02-19T06:44:05.689Z,0.38
2023-02-19T06:46:36.019Z,0.30
2023-02-19T06:49:05.590Z,0.60
2023-02-19T06:51:33.440Z,0.35
2023-02-19T06:54:05.556Z,0.50
2023-02-19T06:56:37.610Z,0.30
2023-02-19T06:59:10.421Z,0.33
2023-02-19T07:01:41.415Z,0.40
2023-02-19T07:04:09.283Z,0.20
2023-02-19T07:06:42.760Z,0.20
2023-02-19T07:09:13.607Z,0.30
2023-02-19T07:11:43.631Z,0.40
2023-02-19T07:14:17.953Z,0.20
2023-02-19T07:16:49.602Z,0.40
2023-02-19T07:19:17.436Z,0.27
2023-02-19T07:21:45.245Z,0.67
2023-02-19T07:24:16.627Z,0.40
2023-02-19T07:26:44.354Z,0.30
2023-02-19T07:29:14.379Z,0.40
2023-02-19T07:31:42.224Z,0.40
2023-02-19T07:34:10.013Z,0.53
2023-02-19T07:36:39.900Z,0.43
2023-02-19T07:39:10.254Z,0.20
2023-02-19T07:44:09.132Z,0.30
2023-02-19T07:46:38.723Z,0.30
2023-02-19T07:49:07.218Z,0.57
2023-02-19T07:51:34.995Z,0.43
2023-02-19T07:54:02.757Z,0.30
2023-02-19T07:56:30.547Z,0.63
2023-02-19T07:59:01.083Z,0.50
2023-02-19T08:04:11.616Z,0.33
2023-02-19T08:06:39.372Z,0.50
2023-02-19T08:09:09.274Z,0.40
2023-02-19T08:11:56.586Z,0.40
2023-02-19T08:14:29.709Z,0.40
2023-02-19T08:16:59.564Z,0.43
2023-02-19T08:19:27.337Z,0.73
2023-02-19T08:21:56.893Z,0.60
2023-02-19T08:24:26.814Z,0.30
2023-02-19T08:26:54.486Z,0.63
2023-02-19T08:29:24.092Z,0.20
2023-02-19T08:31:55.103Z,0.45
2023-02-19T08:34:25.061Z,0.60
2023-02-19T08:36:55.346Z,0.63
2023-02-19T08:39:23.184Z,0.30
2023-02-19T08:41:52.999Z,0.40
2023-02-19T08:44:22.757Z,0.50
2023-02-19T08:46:50.493Z,0.40
2023-02-19T08:49:23.497Z,0.30
2023-02-19T08:51:51.375Z,0.43
2023-02-19T08:54:19.221Z,0.77
2023-02-19T08:56:51.075Z,0.50
2023-02-19T08:59:20.285Z,0.40
2023-02-19T09:01:52.711Z,0.40
2023-02-19T09:04:21.867Z,0.40
2023-02-19T09:06:49.620Z,0.50
2023-02-19T09:09:19.501Z,0.60
2023-02-19T09:11:49.210Z,0.70
2023-02-19T09:14:17.219Z,0.75
2023-02-19T09:16:49.005Z,0.40
2023-02-19T09:19:16.709Z,0.67
2023-02-19T09:21:45.804Z,0.60
2023-02-19T09:24:17.719Z,0.57
2023-02-19T09:26:45.443Z,0.60
2023-02-19T09:29:13.104Z,0.60
2023-02-19T09:31:45.161Z,0.40
2023-02-19T09:34:13.166Z,0.40
2023-02-19T09:36:41.076Z,0.67
2023-02-19T09:39:12.698Z,0.40
2023-02-19T09:41:46.460Z,0.40
2023-02-19T09:44:20.393Z,0.60
2023-02-19T09:46:50.054Z,0.50
2023-02-19T09:49:33.480Z,0.50
2023-02-19T09:52:05.111Z,0.37
2023-02-19T09:54:41.073Z,0.87
2023-02-19T09:57:15.905Z,0.80
2023-02-19T09:59:50.847Z,0.60
2023-02-19T10:02:21.103Z,0.40
2023-02-19T10:04:52.279Z,1.05
2023-02-19T10:07:22.838Z,0.60
2023-02-19T10:12:27.435Z,0.70
2023-02-19T10:15:01.344Z,0.60
2023-02-19T10:17:34.671Z,0.63
2023-02-19T10:20:06.384Z,0.47
2023-02-19T10:22:39.016Z,0.50
2023-02-19T10:25:10.686Z,0.30
2023-02-19T10:27:40.481Z,0.67
2023-02-19T10:30:18.215Z,0.60
2023-02-19T10:33:00.417Z,0.30
2023-02-19T10:35:30.038Z,0.90
2023-02-19T10:38:00.047Z,0.60
2023-02-19T10:40:30.211Z,0.52
2023-02-19T10:43:01.830Z,0.60
2023-02-19T10:45:36.094Z,0.40
2023-02-19T10:48:07.303Z,0.53
2023-02-19T10:50:39.333Z,0.30
2023-02-19T10:53:07.156Z,0.37
2023-02-19T10:55:39.531Z,0.47
2023-02-19T10:58:25.264Z,0.60
2023-02-19T11:01:12.892Z,0.50
2023-02-19T11:03:40.913Z,0.30
2023-02-19T11:06:10.967Z,0.43
2023-02-19T11:08:52.012Z,0.47
2023-02-19T11:11:27.751Z,0.60
2023-02-19T11:13:57.898Z,0.80
2023-02-19T11:16:38.698Z,0.50
2023-02-19T11:19:26.576Z,0.40
2023-02-19T11:21:54.874Z,0.50
2023-02-19T11:24:38.903Z,0.30
2023-02-19T11:27:17.070Z,0.33
2023-02-19T11:29:48.876Z,0.50
2023-02-19T11:32:26.528Z,0.57
2023-02-19T11:35:17.304Z,0.30
2023-02-19T11:37:58.185Z,0.30
2023-02-19T11:40:39.394Z,0.47
2023-02-19T11:43:21.376Z,0.30
2023-02-19T11:45:58.024Z,0.30
2023-02-19T11:48:42.900Z,0.50
2023-02-19T11:51:33.684Z,0.30
2023-02-19T11:54:18.155Z,0.20
2023-02-19T11:56:57.856Z,0.67
2023-02-19T11:59:35.326Z,0.57
2023-02-19T12:02:32.614Z,0.40
2023-02-19T12:05:17.900Z,0.43
2023-02-19T12:08:10.695Z,0.30
2023-02-19T12:10:52.902Z,0.93
2023-02-19T12:13:32.998Z,0.50
2023-02-19T12:16:14.461Z,0.30
2023-02-19T12:19:23.805Z,0.40
2023-02-19T12:22:16.140Z,0.30
2023-02-19T12:25:01.128Z,0.30
2023-02-19T12:27:40.400Z,0.20
2023-02-19T12:30:28.207Z,0.50
2023-02-19T12:33:18.524Z,0.40
2023-02-19T12:35:58.119Z,0.40
2023-02-19T12:38:35.094Z,0.50
2023-02-19T12:41:19.897Z,0.30
2023-02-19T12:43:54.677Z,0.50
2023-02-19T12:46:29.103Z,0.27
2023-02-19T12:49:03.393Z,0.20
2023-02-19T12:51:39.168Z,0.40
2023-02-19T12:54:13.251Z,0.40
2023-02-19T12:56:45.334Z,0.43
2023-02-19T12:59:16.585Z,0.50
2023-02-19T13:01:51.520Z,0.43
2023-02-19T13:04:27.188Z,0.40
2023-02-19T13:07:00.373Z,0.30
2023-02-19T13:09:34.587Z,0.40
2023-02-19T13:12:06.770Z,0.30
2023-02-19T13:14:38.238Z,0.40
2023-02-19T13:17:17.884Z,0.40
2023-02-19T13:19:49.605Z,0.30
2023-02-19T13:22:41.653Z,0.40
2023-02-19T13:25:11.089Z,0.50
2023-02-19T13:28:09.037Z,0.30
2023-02-19T13:30:54.422Z,0.50
2023-02-19T13:33:37.163Z,0.20
2023-02-19T13:36:12.143Z,0.40
2023-02-19T13:38:44.815Z,0.60
2023-02-19T13:41:28.503Z,0.33
2023-02-19T13:44:03.834Z,0.50
2023-02-19T13:46:39.049Z,0.40
2023-02-19T13:49:43.911Z,0.40
2023-02-19T13:52:44.385Z,0.40
2023-02-19T13:55:52.779Z,0.30
2023-02-19T13:59:01.979Z,0.40
2023-02-19T14:02:14.962Z,0.23
2023-02-19T14:04:51.159Z,0.30
2023-02-19T14:07:35.953Z,0.40
2023-02-19T14:10:09.717Z,0.30
2023-02-19T14:12:41.457Z,0.50
2023-02-19T14:15:44.584Z,0.40
2023-02-19T14:18:44.113Z,0.40
2023-02-19T14:21:23.675Z,0.40
2023-02-19T14:23:54.953Z,0.47
2023-02-19T14:26:25.923Z,0.20
2023-02-19T14:28:57.849Z,0.30
2023-02-19T14:31:29.859Z,0.20
2023-02-19T14:34:02.365Z,0.40
2023-02-19T14:36:44.213Z,0.40
2023-02-19T14:39:18.341Z,0.40
2023-02-19T14:41:50.196Z,0.20
2023-02-19T14:44:25.110Z,0.30
2023-02-19T14:46:58.671Z,0.60
2023-02-19T14:49:32.332Z,0.30
2023-02-19T14:52:02.227Z,0.40
2023-02-19T14:54:51.240Z,0.20
2023-02-19T14:57:23.224Z,0.20
2023-02-19T15:00:00.521Z,0.30
2023-02-19T15:02:30.293Z,0.40
2023-02-19T15:05:00.267Z,0.40
2023-02-19T15:07:30.775Z,0.30
2023-02-19T15:12:44.997Z,0.40
2023-02-19T15:17:49.532Z,0.30
2023-02-19T15:20:20.735Z,0.53
2023-02-19T15:22:48.887Z,0.97
2023-02-19T15:25:22.080Z,0.70
2023-02-19T15:27:53.613Z,0.60
2023-02-19T15:30:24.927Z,0.70
2023-02-19T15:32:54.332Z,0.80
2023-02-19T15:35:24.333Z,0.57
2023-02-19T15:37:52.820Z,0.40
2023-02-19T15:40:27.533Z,0.40
2023-02-19T15:42:58.985Z,0.50
2023-02-19T15:45:47.913Z,0.50
2023-02-19T15:48:21.644Z,0.80
2023-02-19T15:50:53.502Z,0.60
2023-02-19T15:53:24.471Z,0.53
2023-02-19T15:56:02.043Z,0.60
2023-02-19T15:58:38.809Z,0.50
2023-02-19T16:01:16.617Z,0.50
2023-02-19T16:03:58.253Z,0.90
2023-02-19T16:06:59.170Z,0.60
2023-02-19T16:09:33.649Z,0.30
2023-02-19T16:12:02.611Z,0.97
2023-02-19T16:14:34.269Z,1.30
2023-02-19T16:17:13.462Z,0.70
2023-02-19T16:19:46.927Z,0.70
2023-02-19T16:22:18.544Z,0.50
2023-02-19T16:24:47.594Z,0.40
2023-02-19T16:27:28.936Z,0.50
2023-02-19T16:29:59.020Z,0.57
2023-02-19T16:32:27.081Z,0.45
2023-02-19T16:34:55.001Z,0.43
2023-02-19T16:37:35.649Z,0.40
2023-02-19T16:40:52.530Z,0.43
2023-02-19T16:43:31.819Z,0.40
2023-02-19T16:46:05.259Z,0.50
2023-02-19T16:48:33.143Z,0.40
2023-02-19T16:51:01.465Z,0.67
2023-02-19T16:53:33.174Z,0.60
2023-02-19T16:56:01.105Z,2.90
2023-02-19T16:58:28.828Z,1.90
2023-02-19T17:00:59.286Z,3.00
2023-02-19T17:05:58.549Z,4.23
2023-02-19T17:08:38.876Z,2.90
2023-02-19T17:11:12.437Z,1.20
2023-02-19T17:13:40.917Z,1.30
2023-02-19T17:16:09.578Z,4.90
2023-02-19T17:18:40.814Z,1.97
2023-02-19T17:21:17.668Z,7.80
2023-02-19T17:23:47.676Z,4.70
2023-02-19T17:26:16.164Z,3.53
2023-02-19T17:28:46.278Z,4.00
2023-02-19T17:31:16.518Z,1.13
2023-02-19T17:33:46.802Z,4.50
2023-02-19T17:36:22.732Z,1.35
2023-02-19T17:38:51.171Z,2.20
2023-02-19T17:41:18.964Z,0.87
2023-02-19T17:43:49.415Z,1.83
2023-02-19T17:48:46.809Z,0.70
2023-02-19T17:51:16.656Z,0.80
2023-02-19T17:53:46.530Z,1.23
2023-02-19T17:56:17.686Z,1.10
2023-02-19T17:58:45.548Z,1.40
2023-02-19T18:01:13.923Z,0.70
2023-02-19T18:03:42.046Z,1.60
2023-02-19T18:06:11.389Z,2.03
2023-02-19T18:08:39.342Z,2.03
2023-02-19T18:11:08.507Z,1.50
2023-02-19T18:13:37.859Z,1.43
2023-02-19T18:16:06.850Z,3.73
2023-02-19T18:18:34.689Z,2.73
2023-02-19T18:21:04.381Z,1.60
2023-02-19T18:23:33.426Z,0.73
2023-02-19T18:26:01.447Z,2.83
2023-02-19T18:28:29.257Z,0.80
2023-02-19T18:30:57.016Z,1.10
2023-02-19T18:33:27.001Z,1.77
2023-02-19T18:35:54.829Z,1.00
2023-02-19T18:38:22.640Z,2.10
2023-02-19T18:40:58.830Z,1.67
2023-02-19T18:43:27.057Z,2.17
2023-02-19T18:45:54.817Z,0.70
2023-02-19T18:48:22.964Z,1.43
2023-02-19T18:50:52.413Z,0.90
2023-02-19T18:53:20.205Z,1.33
2023-02-19T18:55:48.569Z,1.57
2023-02-19T18:58:18.777Z,1.30
2023-02-19T19:00:46.655Z,2.08
2023-02-19T19:03:16.610Z,1.43
2023-02-19T19:05:44.419Z,1.17
2023-02-19T19:08:12.131Z,2.30
2023-02-19T19:10:44.161Z,1.90
2023-02-19T19:13:11.888Z,0.73
2023-02-19T19:15:41.417Z,0.90
2023-02-19T19:18:13.245Z,1.42
2023-02-19T19:20:40.977Z,0.90
2023-02-19T19:23:08.698Z,1.90
2023-02-19T19:25:40.572Z,0.90
2023-02-19T19:28:08.367Z,0.77
2023-02-19T19:30:36.126Z,0.80
2023-02-19T19:33:07.437Z,0.80
2023-02-19T19:35:36.547Z,0.80
2023-02-19T19:38:04.415Z,0.60
2023-02-19T19:40:34.314Z,1.07
2023-02-19T19:43:04.213Z,0.80
2023-02-19T19:48:15.049Z,0.80
2023-02-19T19:50:42.781Z,0.53
2023-02-19T19:53:10.535Z,0.90
2023-02-19T19:55:40.501Z,0.80
2023-02-19T19:58:08.372Z,4.47
2023-02-19T20:00:38.346Z,0.70
2023-02-19T20:03:07.053Z,0.70
2023-02-19T20:05:36.196Z,0.83
2023-02-19T20:08:03.929Z,0.80
2023-02-19T20:10:32.156Z,0.50
2023-02-19T20:13:00.219Z,0.70
2023-02-19T20:15:27.915Z,0.50
2023-02-19T20:17:55.867Z,0.60
2023-02-19T20:20:24.090Z,0.50
2023-02-19T20:22:53.736Z,1.00
2023-02-19T20:25:26.290Z,0.82
2023-02-19T20:27:54.662Z,0.77
2023-02-19T20:30:24.714Z,0.57
2023-02-19T20:32:55.436Z,0.80
2023-02-19T20:35:26.489Z,0.90
2023-02-19T20:37:55.804Z,0.40
2023-02-19T20:40:27.420Z,0.57
2023-02-19T20:42:57.448Z,0.50
2023-02-19T20:45:25.174Z,0.70
2023-02-19T20:47:53.185Z,0.50
2023-02-19T20:50:23.365Z,0.43
2023-02-19T20:52:51.263Z,0.55
2023-02-19T20:55:20.926Z,1.13
2023-02-19T20:57:50.768Z,0.60
2023-02-19T21:00:21.975Z,0.43
2023-02-19T21:02:49.864Z,0.50
2023-02-19T21:05:20.517Z,0.57
2023-02-19T21:07:48.315Z,0.70
2023-02-19T21:10:16.214Z,0.50
2023-02-19T21:12:52.391Z,0.70
2023-02-19T21:15:20.372Z,0.40
2023-02-19T21:17:48.168Z,0.43
2023-02-19T21:20:18.889Z,0.80
2023-02-19T21:22:48.831Z,0.57
2023-02-19T21:25:16.816Z,0.40
2023-02-19T21:27:46.634Z,0.63
2023-02-19T21:30:17.887Z,0.65
2023-02-19T21:32:45.635Z,0.60
2023-02-19T21:35:15.651Z,0.90
2023-02-19T21:37:46.316Z,0.50
2023-02-19T21:40:14.725Z,0.50
2023-02-19T21:42:44.664Z,0.50
2023-02-19T21:45:14.258Z,0.40
2023-02-19T21:47:43.815Z,0.73
2023-02-19T21:50:13.967Z,0.50
2023-02-19T21:52:43.654Z,0.55
2023-02-19T21:55:11.359Z,0.40
2023-02-19T21:57:41.438Z,0.43
2023-02-19T22:00:12.613Z,0.55
2023-02-19T22:02:40.396Z,0.50
2023-02-19T22:05:11.425Z,0.60
2023-02-19T22:07:41.114Z,0.60
2023-02-19T22:10:13.510Z,0.55
2023-02-19T22:12:41.195Z,0.40
2023-02-19T22:15:11.363Z,0.70
2023-02-19T22:17:41.241Z,0.50
2023-02-19T22:20:10.767Z,0.52
2023-02-19T22:22:38.611Z,0.43
2023-02-19T22:25:06.888Z,0.67
2023-02-19T22:27:34.790Z,0.60
2023-02-19T22:30:04.381Z,0.70
2023-02-19T22:32:32.350Z,0.60
2023-02-19T22:35:00.066Z,0.60
2023-02-19T22:37:31.600Z,0.70
2023-02-19T22:40:01.623Z,0.60
2023-02-19T22:42:29.414Z,0.50
2023-02-19T22:44:59.528Z,0.50
2023-02-19T22:47:29.465Z,0.38
2023-02-19T22:49:57.321Z,0.50
2023-02-19T22:52:30.087Z,0.80
2023-02-19T22:55:01.465Z,0.53
2023-02-19T22:57:31.891Z,0.40
2023-02-19T23:02:29.364Z,0.50
2023-02-19T23:04:58.976Z,0.60
2023-02-19T23:07:26.836Z,0.68
2023-02-19T23:09:56.909Z,0.87
2023-02-19T23:12:28.410Z,0.40
2023-02-19T23:14:56.122Z,0.80
2023-02-19T23:17:26.141Z,0.90
2023-02-19T23:19:55.756Z,0.70
2023-02-19T23:22:23.508Z,0.70
2023-02-19T23:24:53.549Z,0.50
2023-02-19T23:27:26.031Z,0.85
2023-02-19T23:29:57.509Z,0.40
2023-02-19T23:32:25.206Z,0.70
2023-02-19T23:34:54.762Z,0.60
2023-02-19T23:37:24.830Z,0.57
2023-02-19T23:39:52.532Z,0.30
2023-02-19T23:42:22.166Z,0.40
2023-02-19T23:44:52.038Z,0.70
2023-02-19T23:47:37.805Z,0.40
2023-02-19T23:50:08.225Z,0.50
2023-02-19T23:55:05.771Z,0.50
2023-02-19T23:57:35.831Z,0.70
